Time;durP1;ratioP1;P1;durP2;ratioP2;P2;SDS_P1;SDS_P2;PMS_P1;PMS_P2;Temp;Humidity;BMP_temperature;BMP_pressure;BME280_temperature;BME280_humidity;BME280_pressure;Samples;Min_cycle;Max_cycle;Signal;HPM_P1;HPM_P2
2022/02/17 00:00:24;;;;;;;;;0.00;0.00;;;;;20.93;41.55;100348.00;5078165;28;51196;-47
2022/02/17 00:02:50;;;;;;;;;0.00;0.00;;;;;20.92;41.74;100338.91;5076982;27;53120;-47
2022/02/17 00:05:16;;;;;;;;;0.75;0.00;;;;;20.92;41.47;100340.81;5077295;27;51035;-47
2022/02/17 00:07:42;;;;;;;;;0.00;0.00;;;;;20.91;41.76;100341.91;5077703;27;51066;-48
2022/02/17 00:10:08;;;;;;;;;0.00;0.00;;;;;20.89;41.38;100344.88;5077826;27;50981;-46
2022/02/17 00:12:34;;;;;;;;;0.00;0.00;;;;;20.88;41.76;100334.97;5077592;27;51095;-49
2022/02/17 00:15:00;;;;;;;;;0.75;0.00;;;;;20.88;41.54;100345.13;5077592;27;51253;-50
2022/02/17 00:17:25;;;;;;;;;0.00;0.00;;;;;20.85;41.53;100329.09;5077683;27;51073;-48
2022/02/17 00:19:51;;;;;;;;;0.00;0.00;;;;;20.86;41.43;100333.53;5078235;27;51086;-51
2022/02/17 00:22:16;;;;;;;;;0.00;0.00;;;;;20.84;41.38;100305.38;5077225;27;51052;-48
2022/02/17 00:24:42;;;;;;;;;0.50;0.00;;;;;20.84;41.57;100335.66;5077413;27;51123;-47
2022/02/17 00:27:07;;;;;;;;;0.00;0.00;;;;;20.82;41.70;100338.63;5077781;27;51206;-46
2022/02/17 00:29:33;;;;;;;;;0.00;0.00;;;;;20.82;41.55;100351.56;5077587;27;51063;-45
2022/02/17 00:31:59;;;;;;;;;0.00;0.00;;;;;20.82;41.82;100365.34;5077236;27;51298;-47
2022/02/17 00:34:24;;;;;;;;;0.00;0.00;;;;;20.79;41.34;100363.06;5077559;27;51271;-50
2022/02/17 00:36:50;;;;;;;;;0.00;0.00;;;;;20.80;41.72;100381.25;5077721;27;51100;-51
2022/02/17 00:39:16;;;;;;;;;0.00;0.00;;;;;20.78;41.62;100375.16;5077769;27;50943;-48
2022/02/17 00:41:41;;;;;;;;;0.00;0.00;;;;;20.78;41.64;100383.41;5075796;28;51949;-50
2022/02/17 00:44:06;;;;;;;;;0.00;0.00;;;;;20.77;41.53;100398.25;5077648;27;51156;-46
2022/02/17 00:46:32;;;;;;;;;0.00;0.00;;;;;20.76;41.75;100383.66;5076666;27;51216;-46
2022/02/17 00:48:57;;;;;;;;;0.00;0.00;;;;;20.75;41.56;100404.84;5077395;27;51224;-46
2022/02/17 00:51:23;;;;;;;;;0.00;0.00;;;;;20.74;41.41;100399.56;5076545;27;50974;-47
2022/02/17 00:53:48;;;;;;;;;0.00;0.00;;;;;20.74;41.78;100413.31;5076765;27;51108;-48
2022/02/17 00:56:14;;;;;;;;;0.00;0.00;;;;;20.73;42.08;100408.88;5076164;27;51092;-46
2022/02/17 00:58:39;;;;;;;;;0.00;0.00;;;;;20.72;41.67;100410.78;5075241;28;50962;-49
2022/02/17 01:01:04;;;;;;;;;0.00;0.00;;;;;20.71;41.91;100414.63;5076868;27;51019;-51
2022/02/17 01:03:30;;;;;;;;;0.00;0.00;;;;;20.71;41.51;100425.63;5076695;27;51299;-49
2022/02/17 01:05:55;;;;;;;;;0.00;0.00;;;;;20.70;41.54;100420.34;5075793;28;51143;-46
2022/02/17 01:08:21;;;;;;;;;0.00;0.00;;;;;20.69;41.62;100425.03;5077434;27;51370;-49
2022/02/17 01:10:46;;;;;;;;;0.00;0.00;;;;;20.69;41.85;100429.69;5076247;28;51129;-50
2022/02/17 01:13:11;;;;;;;;;0.00;0.00;;;;;20.68;42.07;100423.34;5077073;27;51153;-46
2022/02/17 01:15:37;;;;;;;;;0.00;0.00;;;;;20.67;41.90;100421.66;5076596;27;51455;-49
2022/02/17 01:18:03;;;;;;;;;0.00;0.00;;;;;20.67;41.96;100424.41;5077110;27;51365;-45
2022/02/17 01:20:28;;;;;;;;;0.00;0.00;;;;;20.66;41.70;100406.22;5076678;27;51346;-51
2022/02/17 01:22:54;;;;;;;;;0.00;0.00;;;;;20.66;41.96;100413.66;5076838;27;51352;-47
2022/02/17 01:25:19;;;;;;;;;0.00;0.00;;;;;20.66;41.85;100427.41;5076531;27;51159;-47
2022/02/17 01:27:44;;;;;;;;;0.00;0.00;;;;;20.65;41.69;100425.72;5077300;27;51044;-50
2022/02/17 01:30:10;;;;;;;;;1.00;0.00;;;;;20.63;41.71;100428.69;5076360;27;51782;-45
2022/02/17 01:32:36;;;;;;;;;0.50;0.00;;;;;20.63;42.09;100456.22;5076372;28;51225;-49
2022/02/17 01:35:02;;;;;;;;;0.00;0.00;;;;;20.63;41.88;100472.72;5092204;27;51136;-48
2022/02/17 01:37:27;;;;;;;;;0.00;0.00;;;;;20.63;41.88;100471.88;5076416;27;50911;-50
2022/02/17 01:39:53;;;;;;;;;0.00;0.00;;;;;20.61;42.08;100474.88;5076630;27;51725;-46
2022/02/17 01:42:18;;;;;;;;;0.00;0.00;;;;;20.61;41.59;100477.63;5076658;27;51092;-50
2022/02/17 01:44:50;;;;;;;;;0.00;0.00;;;;;20.60;42.00;100497.97;5075964;27;52319;-49
2022/02/17 01:47:17;;;;;;;;;0.00;0.00;;;;;20.59;41.71;100490.78;5076320;27;51180;-48
2022/02/17 01:49:43;;;;;;;;;1.00;0.00;;;;;20.60;41.45;100492.47;5076617;27;50990;-48
2022/02/17 01:52:11;;;;;;;;;0.50;0.00;;;;;20.59;41.84;100482.53;5076463;27;51353;-48
2022/02/17 01:54:38;;;;;;;;;0.00;0.00;;;;;20.59;41.63;100484.44;5076116;28;51087;-50
2022/02/17 01:57:09;;;;;;;;;0.00;0.00;;;;;20.58;42.08;100472.59;5076143;27;51208;-49
2022/02/17 01:59:35;;;;;;;;;0.00;0.00;;;;;20.58;41.62;100504.78;5076113;27;51938;-49
2022/02/17 02:02:00;;;;;;;;;0.00;0.00;;;;;20.57;41.65;100483.84;5076133;27;51092;-48
2022/02/17 02:04:26;;;;;;;;;0.00;0.00;;;;;20.57;41.71;100500.34;5076670;27;51496;-51
2022/02/17 02:06:52;;;;;;;;;0.50;0.00;;;;;20.56;41.69;100505.00;5075948;27;51121;-48
2022/02/17 02:09:18;;;;;;;;;0.00;0.00;;;;;20.57;41.94;100514.09;5075804;27;51971;-47
2022/02/17 02:11:45;;;;;;;;;1.00;0.00;;;;;20.56;42.09;100488.50;5075697;28;51056;-45
2022/02/17 02:14:15;;;;;;;;;0.00;0.00;;;;;20.55;41.61;100511.59;5076300;27;51032;-49
2022/02/17 02:16:42;;;;;;;;;0.00;0.00;;;;;20.55;41.63;100508.84;5075607;27;51409;-49
2022/02/17 02:19:07;;;;;;;;;0.00;0.00;;;;;20.54;41.46;100529.19;5076076;27;51781;-45
2022/02/17 02:21:33;;;;;;;;;0.00;0.00;;;;;20.54;41.66;100534.69;5075772;27;51040;-48
2022/02/17 02:23:58;;;;;;;;;0.00;0.00;;;;;20.53;41.62;100519.25;5076193;27;51147;-47
2022/02/17 02:26:24;;;;;;;;;0.50;0.50;;;;;20.52;41.42;100525.78;5075383;27;51070;-47
2022/02/17 02:28:49;;;;;;;;;0.25;0.00;;;;;20.52;41.55;100516.69;5075470;27;53705;-49
2022/02/17 02:31:15;;;;;;;;;0.00;0.00;;;;;20.52;41.26;100522.19;5075402;27;51129;-46
2022/02/17 02:33:43;;;;;;;;;0.75;0.00;;;;;20.50;41.69;100524.34;5075677;27;51211;-49
2022/02/17 02:36:08;;;;;;;;;0.00;0.00;;;;;20.51;41.54;100509.53;5075737;27;51094;-47
2022/02/17 02:38:34;;;;;;;;;0.00;0.00;;;;;20.50;41.61;100541.69;5075011;27;51868;-47
2022/02/17 02:40:59;;;;;;;;;0.00;0.00;;;;;20.49;41.58;100530.94;5075909;27;51252;-47
2022/02/17 02:43:24;;;;;;;;;0.25;0.25;;;;;20.49;41.43;100533.69;5075824;27;51056;-50
2022/02/17 02:45:50;;;;;;;;;0.00;0.00;;;;;20.48;41.59;100535.59;5075514;27;51116;-49
2022/02/17 02:48:15;;;;;;;;;0.25;0.25;;;;;20.48;41.73;100527.34;5075272;27;51137;-45
2022/02/17 02:50:41;;;;;;;;;0.00;0.00;;;;;20.46;41.71;100533.06;5075659;27;51693;-49
2022/02/17 02:53:07;;;;;;;;;0.00;0.00;;;;;20.46;41.68;100552.34;5075897;27;51150;-50
2022/02/17 02:55:32;;;;;;;;;0.75;0.75;;;;;20.46;41.30;100568.00;5066498;27;51362;-49
2022/02/17 02:57:58;;;;;;;;;1.00;0.00;;;;;20.45;41.36;100534.16;5075414;27;51095;-46
2022/02/17 03:00:24;;;;;;;;;1.00;0.00;;;;;20.45;41.51;100533.31;5075065;27;51053;-46
2022/02/17 03:02:50;;;;;;;;;0.00;0.00;;;;;20.44;41.36;100537.97;5075652;27;51064;-47
2022/02/17 03:05:15;;;;;;;;;0.00;0.00;;;;;20.43;41.56;100541.78;5075203;27;51404;-46
2022/02/17 03:07:41;;;;;;;;;0.00;0.00;;;;;20.43;41.42;100543.72;5075217;27;50986;-49
2022/02/17 03:10:07;;;;;;;;;0.00;0.00;;;;;20.42;41.04;100545.59;5075245;28;51269;-48
2022/02/17 03:12:34;;;;;;;;;0.25;0.25;;;;;20.42;40.90;100542.84;5075064;28;51171;-48
2022/02/17 03:14:59;;;;;;;;;0.00;0.00;;;;;20.42;41.00;100556.59;5074717;27;51263;-46
2022/02/17 03:17:25;;;;;;;;;0.00;0.00;;;;;20.41;41.06;100563.13;5074699;27;51261;-47
2022/02/17 03:19:50;;;;;;;;;0.00;0.00;;;;;20.40;41.10;100555.94;5075601;27;51219;-46
2022/02/17 03:22:16;;;;;;;;;0.00;0.00;;;;;20.40;41.02;100549.63;5078414;27;51052;-48
2022/02/17 03:24:41;;;;;;;;;1.00;0.00;;;;;20.39;41.14;100557.03;5070559;27;51251;-47
2022/02/17 03:27:07;;;;;;;;;0.50;0.00;;;;;20.40;41.14;100555.13;5077957;28;51820;-50
2022/02/17 03:29:32;;;;;;;;;2.00;0.00;;;;;20.39;41.00;100559.78;5078454;27;51221;-48
2022/02/17 03:31:58;;;;;;;;;0.00;0.00;;;;;20.38;41.42;100555.34;5078421;27;51129;-47
2022/02/17 03:34:24;;;;;;;;;0.50;0.00;;;;;20.38;40.85;100565.50;5079096;27;51261;-45
2022/02/17 03:36:49;;;;;;;;;1.75;0.00;;;;;20.37;41.06;100561.91;5078002;27;51806;-48
2022/02/17 03:39:15;;;;;;;;;0.00;0.00;;;;;20.37;40.94;100575.69;5078617;27;51143;-49
2022/02/17 03:41:41;;;;;;;;;0.00;0.00;;;;;20.36;41.13;100590.50;5078625;27;51177;-46
2022/02/17 03:44:06;;;;;;;;;0.00;0.00;;;;;20.36;41.07;100589.66;5078742;27;51006;-48
2022/02/17 03:46:31;;;;;;;;;0.00;0.00;;;;;20.35;41.05;100587.97;5077499;27;52005;-47
2022/02/17 03:48:57;;;;;;;;;0.75;0.00;;;;;20.35;41.00;100591.56;5078638;27;51068;-48
2022/02/17 03:51:22;;;;;;;;;1.00;1.00;;;;;20.35;40.54;100590.72;5078342;27;51128;-50
2022/02/17 03:53:48;;;;;;;;;1.75;0.00;;;;;20.33;40.72;100601.97;5078716;27;51045;-46
2022/02/17 03:56:13;;;;;;;;;0.00;0.00;;;;;20.33;40.62;100598.38;5077640;27;51869;-50
2022/02/17 04:01:22;;;;;;;;;0.00;0.00;;;;;20.32;40.49;100626.94;5077874;28;51217;-49
2022/02/17 04:03:47;;;;;;;;;4.50;1.75;;;;;20.31;40.60;100639.00;5078484;27;51162;-50
2022/02/17 04:06:13;;;;;;;;;3.00;0.50;;;;;20.31;40.60;100639.00;5077402;27;52222;-45
2022/02/17 04:08:38;;;;;;;;;1.50;0.75;;;;;20.30;40.69;100642.81;5077895;27;51177;-49
2022/02/17 04:11:04;;;;;;;;;0.00;0.00;;;;;20.30;40.43;100645.56;5077925;27;51191;-48
2022/02/17 04:13:29;;;;;;;;;0.50;0.00;;;;;20.28;40.73;100643.06;5077863;27;51388;-47
2022/02/17 04:15:55;;;;;;;;;0.00;0.00;;;;;20.28;40.57;100676.06;5077213;28;51178;-50
2022/02/17 04:18:20;;;;;;;;;3.50;1.25;;;;;20.29;40.69;100665.91;5077752;27;51281;-50
2022/02/17 04:20:46;;;;;;;;;0.00;0.00;;;;;20.29;40.61;100675.00;5078039;27;51129;-49
2022/02/17 04:23:11;;;;;;;;;2.00;1.00;;;;;20.28;40.53;100689.81;5077831;27;51188;-48
2022/02/17 04:25:37;;;;;;;;;4.00;0.50;;;;;20.27;40.70;100673.53;5077343;27;51799;-50
2022/02/17 04:28:03;;;;;;;;;1.75;0.25;;;;;20.26;40.31;100672.69;5077787;27;51107;-50
2022/02/17 04:30:28;;;;;;;;;0.75;0.00;;;;;20.26;40.91;100675.44;5077267;27;51384;-45
2022/02/17 04:32:54;;;;;;;;;0.50;0.25;;;;;20.27;40.56;100698.28;5077629;27;51330;-48
2022/02/17 04:35:19;;;;;;;;;1.00;1.00;;;;;20.25;40.37;100717.78;5077160;27;51693;-49
2022/02/17 04:37:45;;;;;;;;;2.50;0.00;;;;;20.25;40.75;100705.94;5077356;27;51114;-49
2022/02/17 04:40:11;;;;;;;;;1.00;1.00;;;;;20.25;40.69;100725.19;5077600;27;51112;-50
2022/02/17 04:42:36;;;;;;;;;3.75;2.75;;;;;20.24;40.22;100732.59;5077709;27;51127;-45
2022/02/17 04:45:02;;;;;;;;;2.00;1.25;;;;;20.24;39.91;100723.50;5076953;27;50976;-46
2022/02/17 04:47:28;;;;;;;;;2.75;1.00;;;;;20.23;40.31;100736.41;5077152;27;51491;-45
2022/02/17 04:49:53;;;;;;;;;0.75;0.75;;;;;20.24;40.36;100756.50;5077763;27;51041;-46
2022/02/17 04:52:18;;;;;;;;;0.00;0.00;;;;;20.21;40.14;100741.28;5077021;27;51240;-47
2022/02/17 04:54:44;;;;;;;;;3.50;1.00;;;;;20.22;40.30;100761.38;5077057;27;51706;-47
2022/02/17 04:57:09;;;;;;;;;0.25;0.00;;;;;20.22;40.24;100776.00;5077627;27;51000;-47
2022/02/17 04:59:35;;;;;;;;;0.25;0.25;;;;;20.21;39.99;100773.44;5077084;27;51357;-46
2022/02/17 05:02:01;;;;;;;;;1.25;1.00;;;;;20.21;40.42;100774.28;5077596;27;51335;-50
2022/02/17 05:04:27;;;;;;;;;2.00;1.00;;;;;20.20;40.31;100786.34;5076485;27;51987;-48
2022/02/17 05:06:52;;;;;;;;;2.00;0.50;;;;;20.19;40.36;100782.75;5077108;27;51119;-49
2022/02/17 05:09:18;;;;;;;;;3.00;0.75;;;;;20.19;40.12;100793.75;5077405;27;51109;-45
2022/02/17 05:11:43;;;;;;;;;3.50;3.00;;;;;20.18;40.32;100803.06;5076969;28;51214;-50
2022/02/17 05:14:08;;;;;;;;;2.25;1.75;;;;;20.17;40.10;100798.66;5076931;27;51560;-50
2022/02/17 05:16:34;;;;;;;;;1.75;1.25;;;;;20.17;40.06;100798.66;5076246;27;51121;-46
2022/02/17 05:18:59;;;;;;;;;3.75;2.75;;;;;20.16;40.02;100796.97;5077183;27;51100;-49
2022/02/17 05:21:25;;;;;;;;;6.00;2.00;;;;;20.17;40.10;100800.56;5077069;27;51000;-46
2022/02/17 05:23:51;;;;;;;;;2.75;1.25;;;;;20.14;39.96;100823.00;5076664;27;51998;-51
2022/02/17 05:26:16;;;;;;;;;5.00;1.50;;;;;20.17;39.89;100822.56;5076361;28;51020;-45
2022/02/17 05:28:42;;;;;;;;;1.75;1.00;;;;;20.16;39.87;100840.13;5076407;27;50976;-47
2022/02/17 05:31:07;;;;;;;;;1.50;1.00;;;;;20.14;39.86;100829.34;5076410;27;50927;-47
2022/02/17 05:33:33;;;;;;;;;1.00;1.00;;;;;20.14;39.97;100829.34;5076650;27;51041;-50
2022/02/17 05:35:58;;;;;;;;;5.00;2.75;;;;;20.14;40.00;100840.34;5076228;27;51115;-49
2022/02/17 05:38:23;;;;;;;;;4.50;2.25;;;;;20.13;40.00;100838.66;5077029;27;50931;-46
2022/02/17 05:40:49;;;;;;;;;1.00;1.00;;;;;20.12;39.88;100836.13;5092869;27;51626;-48
2022/02/17 05:43:14;;;;;;;;;3.50;2.00;;;;;20.13;40.22;100840.56;5075563;27;51097;-48
2022/02/17 05:45:40;;;;;;;;;3.75;2.75;;;;;20.12;39.88;100836.13;5076086;28;51173;-47
2022/02/17 05:48:05;;;;;;;;;2.00;0.75;;;;;20.12;39.65;100834.22;5076284;27;51225;-48
2022/02/17 05:50:32;;;;;;;;;6.50;2.00;;;;;20.11;39.80;100838.06;5076517;27;51123;-49
2022/02/17 05:52:58;;;;;;;;;1.50;1.50;;;;;20.10;39.84;100841.84;5076386;27;51061;-48
2022/02/17 05:55:24;;;;;;;;;1.50;0.75;;;;;20.11;39.46;100834.44;5075815;27;51136;-49
2022/02/17 05:57:50;;;;;;;;;2.75;2.75;;;;;20.10;39.90;100843.75;5076267;27;51099;-46
2022/02/17 06:00:17;;;;;;;;;4.50;1.25;;;;;20.10;39.52;100836.34;5076144;27;51068;-46
2022/02/17 06:02:42;;;;;;;;;4.25;2.50;;;;;20.10;39.45;100839.09;5076306;27;51773;-46
2022/02/17 06:05:10;;;;;;;;;6.00;2.75;;;;;20.05;38.53;100840.81;5075924;28;50985;-50
2022/02/17 06:07:36;;;;;;;;;6.75;4.00;;;;;19.97;38.05;100849.31;5075948;27;51251;-50
2022/02/17 06:10:01;;;;;;;;;8.25;5.00;;;;;19.89;37.30;100869.66;5076297;27;51152;-50
2022/02/17 06:12:27;;;;;;;;;8.25;5.00;;;;;19.81;37.50;100861.66;5075644;27;51891;-50
2022/02/17 06:14:52;;;;;;;;;8.50;4.25;;;;;19.72;37.15;100869.31;5075727;27;51205;-47
2022/02/17 06:17:18;;;;;;;;;7.75;4.00;;;;;19.64;37.24;100886.03;5075919;27;51247;-49
2022/02/17 06:19:43;;;;;;;;;11.25;6.50;;;;;19.54;37.02;100883.69;5075917;27;51298;-48
2022/02/17 06:22:09;;;;;;;;;8.50;3.75;;;;;19.47;37.04;100882.84;5075613;27;51787;-46
2022/02/17 06:24:34;;;;;;;;;10.75;5.75;;;;;19.39;37.27;100876.75;5075810;27;51037;-47
2022/02/17 06:27:00;;;;;;;;;9.00;5.00;;;;;19.33;37.12;100879.28;5076114;27;51295;-48
2022/02/17 06:29:26;;;;;;;;;3.00;3.00;;;;;19.28;37.29;100878.25;5075166;27;50990;-47
2022/02/17 06:31:52;;;;;;;;;12.25;6.50;;;;;19.24;37.21;100876.97;5075218;27;52505;-51
2022/02/17 06:34:17;;;;;;;;;9.25;5.00;;;;;19.18;37.29;100884.19;5075632;27;51419;-49
2022/02/17 06:36:44;;;;;;;;;9.50;6.00;;;;;19.12;37.30;100904.25;5075581;27;51203;-46
2022/02/17 06:39:10;;;;;;;;;13.75;5.25;;;;;19.13;37.40;100896.84;5075741;27;51223;-47
2022/02/17 06:41:35;;;;;;;;;9.50;6.00;;;;;19.21;37.45;100910.38;5075371;27;51703;-49
2022/02/17 06:44:01;;;;;;;;;10.75;7.25;;;;;19.30;37.68;100912.69;5075511;27;51110;-46
2022/02/17 06:46:26;;;;;;;;;5.50;4.00;;;;;19.44;38.00;100926.41;5075323;27;51239;-47
2022/02/17 06:48:51;;;;;;;;;8.50;5.75;;;;;19.54;38.17;100919.41;5075404;27;51126;-48
2022/02/17 06:51:17;;;;;;;;;5.00;3.00;;;;;19.69;37.95;100912.84;5074644;27;51699;-47
2022/02/17 06:53:42;;;;;;;;;9.25;4.75;;;;;19.80;38.20;100926.78;5075239;27;51036;-47
2022/02/17 06:56:08;;;;;;;;;5.50;4.25;;;;;19.91;37.84;100928.03;5074314;27;51112;-50
2022/02/17 06:58:33;;;;;;;;;7.25;3.00;;;;;20.01;37.90;100917.41;5075735;27;50985;-46
2022/02/17 07:00:59;;;;;;;;;9.75;2.50;;;;;20.12;38.06;100930.50;5074840;27;51171;-48
2022/02/17 07:03:25;;;;;;;;;6.75;4.00;;;;;20.22;37.64;100935.53;5075107;27;51081;-50
2022/02/17 07:05:50;;;;;;;;;3.00;2.50;;;;;20.29;37.70;100928.06;5074749;27;51178;-47
2022/02/17 07:08:17;;;;;;;;;4.25;3.25;;;;;20.35;37.59;100927.19;5075428;28;51122;-49
2022/02/17 07:10:55;;;;;;;;;5.75;1.50;;;;;20.40;38.11;100932.88;5074939;27;51927;-51
2022/02/17 07:13:24;;;;;;;;;1.50;1.00;;;;;20.44;38.08;100949.84;5074845;27;51329;-47
2022/02/17 07:15:51;;;;;;;;;5.75;1.75;;;;;20.48;37.94;100953.84;5074596;27;51050;-48
2022/02/17 07:18:18;;;;;;;;;7.75;4.00;;;;;20.51;38.25;100958.88;5074798;27;51255;-49
2022/02/17 07:20:45;;;;;;;;;4.75;2.50;;;;;20.55;38.64;100960.16;5066930;27;51670;-51
2022/02/17 07:23:15;;;;;;;;;4.25;3.25;;;;;20.57;38.42;100949.75;5074701;28;51215;-49
2022/02/17 07:25:44;;;;;;;;;6.50;3.25;;;;;20.62;38.34;100962.84;5073468;27;51139;-50
2022/02/17 07:28:10;;;;;;;;;7.25;4.00;;;;;20.64;38.23;100949.75;5074776;27;51231;-45
2022/02/17 07:30:37;;;;;;;;;7.00;3.25;;;;;20.67;38.10;100965.81;5074066;27;51696;-49
2022/02/17 07:33:03;;;;;;;;;3.50;3.00;;;;;20.69;38.59;100978.28;5074264;27;51104;-46
2022/02/17 07:35:28;;;;;;;;;6.25;3.75;;;;;20.73;38.79;101001.53;5073523;27;51188;-48
2022/02/17 07:37:54;;;;;;;;;4.50;3.00;;;;;20.76;38.82;101008.53;5074753;27;51123;-45
2022/02/17 07:40:21;;;;;;;;;6.50;3.50;;;;;20.79;39.25;101015.50;5073848;28;51026;-46
2022/02/17 07:42:46;;;;;;;;;7.25;4.00;;;;;20.82;39.50;101017.78;5074563;27;51106;-48
2022/02/17 07:45:12;;;;;;;;;3.75;3.00;;;;;20.84;39.34;101011.03;5073992;27;51098;-45
2022/02/17 07:47:44;;;;;;;;;8.00;4.00;;;;;20.89;39.46;101027.72;5074853;28;51004;-44
2022/02/17 07:50:10;;;;;;;;;4.75;3.00;;;;;20.93;39.36;101037.22;5074051;27;52846;-49
2022/02/17 07:52:36;;;;;;;;;6.25;4.50;;;;;20.95;38.87;101034.25;5073693;27;51242;-44
2022/02/17 07:55:01;;;;;;;;;3.00;2.00;;;;;20.99;39.13;101030.84;5066023;27;51202;-44
2022/02/17 07:57:26;;;;;;;;;4.75;4.25;;;;;21.02;38.83;101032.28;5073155;28;51027;-47
2022/02/17 07:59:52;;;;;;;;;6.00;4.00;;;;;21.03;38.46;101009.19;5071099;27;52347;-49
2022/02/17 08:02:17;;;;;;;;;9.00;5.50;;;;;21.06;38.39;101018.94;5067890;27;51224;-47
2022/02/17 08:04:43;;;;;;;;;5.50;4.75;;;;;21.06;37.94;101024.44;5071819;27;51355;-47
2022/02/17 08:07:08;;;;;;;;;9.25;6.50;;;;;21.05;38.13;101015.34;5075109;27;51134;-47
2022/02/17 08:09:34;;;;;;;;;11.25;4.50;;;;;21.02;37.79;101026.78;5075990;27;51805;-50
2022/02/17 08:12:00;;;;;;;;;8.75;4.00;;;;;20.99;38.25;101022.56;5077071;27;51144;-49
2022/02/17 08:14:25;;;;;;;;;6.50;5.00;;;;;20.96;37.94;101020.28;5075937;28;51149;-49
2022/02/17 08:16:51;;;;;;;;;11.25;8.00;;;;;20.92;38.19;101029.19;5077035;28;51223;-46
2022/02/17 08:19:17;;;;;;;;;6.00;4.50;;;;;20.90;37.83;101036.81;5075968;27;50970;-47
2022/02/17 08:21:43;;;;;;;;;11.00;7.00;;;;;20.87;37.66;101032.59;5075704;27;51329;-46
2022/02/17 08:24:09;;;;;;;;;9.25;4.75;;;;;20.84;38.12;101044.06;5076886;27;51160;-49
2022/02/17 08:26:34;;;;;;;;;7.00;3.00;;;;;20.80;37.82;101053.81;5076173;27;51063;-45
2022/02/17 08:28:59;;;;;;;;;7.25;4.50;;;;;20.78;37.72;101072.47;5075811;27;51877;-48
2022/02/17 08:31:26;;;;;;;;;8.50;4.25;;;;;20.77;38.05;101089.22;5075866;27;51135;-49
2022/02/17 08:33:51;;;;;;;;;7.50;5.25;;;;;20.75;38.22;101078.41;5075794;27;51342;-50
2022/02/17 08:36:17;;;;;;;;;9.00;4.25;;;;;20.73;38.23;101081.38;5076368;27;51180;-49
2022/02/17 08:38:43;;;;;;;;;7.50;6.00;;;;;20.71;37.69;101080.75;5075716;28;51817;-49
2022/02/17 08:41:09;;;;;;;;;6.75;4.75;;;;;20.70;37.83;101079.06;5076374;27;51073;-51
2022/02/17 08:43:34;;;;;;;;;9.50;3.75;;;;;20.69;37.84;101084.78;5076721;27;51042;-45
2022/02/17 08:46:00;;;;;;;;;8.25;3.50;;;;;20.66;38.14;101088.81;5076208;27;51296;-49
2022/02/17 08:48:26;;;;;;;;;7.00;4.25;;;;;20.64;38.28;101093.72;5075733;27;51706;-49
2022/02/17 08:50:52;;;;;;;;;6.25;4.50;;;;;20.64;37.89;101104.72;5075537;27;51130;-46
2022/02/17 08:53:17;;;;;;;;;3.50;2.50;;;;;20.62;38.33;101104.06;5076051;27;51144;-47
2022/02/17 08:55:43;;;;;;;;;7.00;3.00;;;;;20.60;38.10;101092.44;5076479;27;51096;-48
2022/02/17 08:58:08;;;;;;;;;6.50;4.00;;;;;20.59;38.17;101100.91;5075738;27;51803;-48
2022/02/17 09:00:33;;;;;;;;;6.00;6.00;;;;;20.58;38.10;101089.06;5075884;27;51146;-49
2022/02/17 09:02:59;;;;;;;;;6.75;4.50;;;;;20.56;37.92;101088.44;5072488;27;51926;-47
2022/02/17 09:05:24;;;;;;;;;5.25;4.00;;;;;20.56;38.31;101098.59;5075482;27;51379;-48
2022/02/17 09:07:50;;;;;;;;;5.50;3.00;;;;;20.54;38.23;101101.56;5075601;27;51228;-48
2022/02/17 09:10:16;;;;;;;;;7.75;5.25;;;;;20.53;38.33;101097.13;5075901;27;51096;-49
2022/02/17 09:12:42;;;;;;;;;10.75;5.00;;;;;20.53;38.04;101101.75;5075625;27;51037;-46
2022/02/17 09:15:09;;;;;;;;;3.75;3.75;;;;;20.51;38.07;101109.41;5075672;27;51443;-46
2022/02/17 09:17:34;;;;;;;;;5.75;5.50;;;;;20.50;38.13;101108.56;5074492;28;51259;-47
2022/02/17 09:20:00;;;;;;;;;4.00;4.00;;;;;20.49;38.02;101106.03;5075783;27;51291;-50
2022/02/17 09:22:25;;;;;;;;;5.00;4.00;;;;;20.49;38.53;101119.78;5075255;27;51108;-45
2022/02/17 09:24:51;;;;;;;;;7.50;4.50;;;;;20.46;38.21;101124.66;5075845;27;51516;-49
2022/02/17 09:27:16;;;;;;;;;3.50;0.50;;;;;20.46;38.08;101126.56;5075629;28;51707;-50
2022/02/17 09:29:42;;;;;;;;;6.00;3.00;;;;;20.44;38.37;101120.44;5075315;27;51143;-49
2022/02/17 09:32:09;;;;;;;;;6.00;4.75;;;;;20.44;38.30;101132.28;5074986;27;51293;-45
2022/02/17 09:34:34;;;;;;;;;4.75;4.00;;;;;20.44;38.42;101136.94;5075559;27;51394;-49
2022/02/17 09:37:00;;;;;;;;;6.25;4.25;;;;;20.43;38.58;101140.78;5075394;27;51653;-46
2022/02/17 09:39:28;;;;;;;;;9.00;4.50;;;;;20.42;38.33;101150.03;5074125;28;51219;-50
2022/02/17 09:41:54;;;;;;;;;6.00;6.00;;;;;20.40;38.63;101155.75;5075115;27;51152;-50
2022/02/17 09:44:21;;;;;;;;;5.50;2.75;;;;;20.40;38.27;101147.50;5075345;27;51020;-50
2022/02/17 09:46:47;;;;;;;;;5.25;2.75;;;;;20.40;38.17;101160.41;5074736;27;52669;-48
2022/02/17 09:49:18;;;;;;;;;4.50;4.00;;;;;20.40;38.39;101179.66;5074455;27;51266;-47
2022/02/17 09:51:44;;;;;;;;;9.75;5.25;;;;;20.37;38.19;101164.44;5074783;27;51400;-48
2022/02/17 09:54:09;;;;;;;;;4.00;2.00;;;;;20.38;38.33;101160.63;5074474;27;51259;-48
2022/02/17 09:56:39;;;;;;;;;7.75;5.00;;;;;20.38;38.39;101171.63;5075067;27;50915;-49
2022/02/17 09:59:05;;;;;;;;;6.75;4.00;;;;;20.39;38.02;101166.97;5075130;27;51734;-48
2022/02/17 10:01:31;;;;;;;;;8.00;6.00;;;;;20.40;38.58;101164.00;5074317;27;51218;-47
2022/02/17 10:04:12;;;;;;;;;6.25;4.25;;;;;20.42;38.15;101174.78;5074525;27;51195;-50
2022/02/17 10:06:45;;;;;;;;;11.50;5.75;;;;;20.43;38.39;101182.88;5074266;27;51935;-48
2022/02/17 10:09:11;;;;;;;;;6.25;4.25;;;;;20.44;38.22;101175.47;5074350;27;51296;-46
2022/02/17 10:11:39;;;;;;;;;4.75;3.25;;;;;20.47;38.13;101180.53;5075002;27;51187;-50
2022/02/17 10:14:16;;;;;;;;;12.25;7.50;;;;;20.47;38.22;101191.56;5074486;27;51124;-46
2022/02/17 10:16:52;;;;;;;;;9.50;4.00;;;;;20.48;38.20;101182.22;5074587;27;51152;-46
2022/02/17 10:19:18;;;;;;;;;7.25;4.75;;;;;20.48;37.96;101175.88;5069379;28;51049;-48
2022/02/17 10:21:43;;;;;;;;;8.25;4.75;;;;;20.49;38.42;101194.09;5074659;27;51170;-47
2022/02/17 10:24:28;;;;;;;;;5.00;4.50;;;;;20.50;38.54;101193.03;5074324;27;50954;-50
2022/02/17 10:27:07;;;;;;;;;9.25;5.75;;;;;20.50;38.31;101196.63;5074539;28;51138;-45
2022/02/17 10:29:34;;;;;;;;;8.00;4.75;;;;;20.50;38.48;101193.88;5089928;27;51117;-47
2022/02/17 10:32:07;;;;;;;;;7.25;5.75;;;;;20.49;38.28;101203.19;5074377;27;51184;-49
2022/02/17 10:34:34;;;;;;;;;7.50;5.25;;;;;20.49;38.31;101203.19;5074855;27;51384;-46
2022/02/17 10:36:59;;;;;;;;;7.25;5.25;;;;;20.49;38.48;101211.44;5074371;27;50985;-48
2022/02/17 10:39:26;;;;;;;;;7.50;4.00;;;;;20.50;38.08;101204.03;5074157;27;51123;-50
2022/02/17 10:42:02;;;;;;;;;6.50;4.00;;;;;20.50;38.33;101204.88;5074351;27;51160;-51
2022/02/17 10:44:33;;;;;;;;;9.75;5.75;;;;;20.50;38.25;101215.03;5073573;27;51343;-48
2022/02/17 10:47:19;;;;;;;;;5.75;4.25;;;;;20.50;38.31;101209.53;5074148;27;51292;-51
2022/02/17 10:49:50;;;;;;;;;8.75;5.50;;;;;20.50;38.47;101206.78;5073702;28;51230;-49
2022/02/17 10:52:34;;;;;;;;;3.50;3.50;;;;;20.51;38.26;101217.56;5073412;28;51171;-47
2022/02/17 10:55:17;;;;;;;;;5.00;5.00;;;;;20.51;37.95;101241.50;5074169;27;51372;-50
2022/02/17 10:57:44;;;;;;;;;6.00;4.00;;;;;20.51;38.43;101224.97;5073760;27;51985;-48
2022/02/17 11:00:17;;;;;;;;;6.25;3.00;;;;;20.52;38.35;101235.78;5073699;27;51103;-50
2022/02/17 11:02:42;;;;;;;;;6.00;4.75;;;;;20.53;38.49;101240.25;5073862;27;50972;-51
2022/02/17 11:05:09;;;;;;;;;5.75;4.00;;;;;20.53;37.75;101243.00;5073963;27;51317;-48
2022/02/17 11:07:39;;;;;;;;;5.00;4.75;;;;;20.54;38.28;101233.69;5073427;27;51146;-50
2022/02/17 11:10:07;;;;;;;;;3.75;3.75;;;;;20.54;38.01;101241.09;5074255;27;51420;-46
2022/02/17 11:12:33;;;;;;;;;4.50;3.00;;;;;20.54;38.07;101252.09;5074031;27;51363;-49
2022/02/17 11:14:58;;;;;;;;;9.75;5.00;;;;;20.55;38.38;101240.88;5073198;27;50957;-46
2022/02/17 11:17:25;;;;;;;;;5.50;3.25;;;;;20.59;38.30;101258.63;5073248;27;51542;-49
2022/02/17 11:19:54;;;;;;;;;6.50;4.00;;;;;20.66;38.11;101248.47;5072227;27;51135;-46
2022/02/17 11:22:20;;;;;;;;;4.25;3.50;;;;;20.77;38.08;101257.16;5071543;27;51291;-46